sensor_id;sensor_type;location;lat;lon;timestamp;temperature;humidity
32698;DHT22;19087;51.062;3.754;2022-07-23T00:01:21;18.00;99.90
32698;DHT22;19087;51.062;3.754;2022-07-23T00:03:48;18.00;99.90
32698;DHT22;19087;51.062;3.754;2022-07-23T00:06:14;18.00;99.90
32698;DHT22;19087;51.062;3.754;2022-07-23T00:08:41;17.90;99.90
32698;DHT22;19087;51.062;3.754;2022-07-23T00:11:07;17.70;99.90
32698;DHT22;19087;51.062;3.754;2022-07-23T00:13:33;17.70;99.90
32698;DHT22;19087;51.062;3.754;2022-07-23T00:15:58;17.70;99.90
32698;DHT22;19087;51.062;3.754;2022-07-23T00:18:24;17.60;99.90
32698;DHT22;19087;51.062;3.754;2022-07-23T00:20:50;17.60;99.90
32698;DHT22;19087;51.062;3.754;2022-07-23T00:23:16;17.60;99.90
32698;DHT22;19087;51.062;3.754;2022-07-23T00:25:42;17.60;99.90
32698;DHT22;19087;51.062;3.754;2022-07-23T00:28:08;17.50;99.90
32698;DHT22;19087;51.062;3.754;2022-07-23T00:30:33;17.40;99.90
32698;DHT22;19087;51.062;3.754;2022-07-23T00:33:01;17.40;99.90
32698;DHT22;19087;51.062;3.754;2022-07-23T00:35:30;17.40;99.90
32698;DHT22;19087;51.062;3.754;2022-07-23T00:37:56;17.20;99.90
32698;DHT22;19087;51.062;3.754;2022-07-23T00:40:23;17.10;99.90
32698;DHT22;19087;51.062;3.754;2022-07-23T00:42:49;17.10;99.90
32698;DHT22;19087;51.062;3.754;2022-07-23T00:45:15;17.00;99.90
32698;DHT22;19087;51.062;3.754;2022-07-23T00:47:40;17.00;99.90
32698;DHT22;19087;51.062;3.754;2022-07-23T00:50:07;17.00;99.90
32698;DHT22;19087;51.062;3.754;2022-07-23T00:52:36;17.10;99.90
32698;DHT22;19087;51.062;3.754;2022-07-23T00:55:03;17.10;99.90
32698;DHT22;19087;51.062;3.754;2022-07-23T00:57:29;17.30;99.90
32698;DHT22;19087;51.062;3.754;2022-07-23T00:59:55;17.40;99.90
32698;DHT22;19087;51.062;3.754;2022-07-23T01:02:21;17.40;99.90
32698;DHT22;19087;51.062;3.754;2022-07-23T01:04:46;17.40;99.90
32698;DHT22;19087;51.062;3.754;2022-07-23T01:07:12;17.40;99.90
32698;DHT22;19087;51.062;3.754;2022-07-23T01:09:38;17.30;99.90
32698;DHT22;19087;51.062;3.754;2022-07-23T01:12:04;17.30;99.90
32698;DHT22;19087;51.062;3.754;2022-07-23T01:14:30;17.40;99.90
32698;DHT22;19087;51.062;3.754;2022-07-23T01:16:56;17.30;99.90
32698;DHT22;19087;51.062;3.754;2022-07-23T01:19:21;17.30;99.90
32698;DHT22;19087;51.062;3.754;2022-07-23T01:21:49;17.20;99.90
32698;DHT22;19087;51.062;3.754;2022-07-23T01:24:16;17.30;99.90
32698;DHT22;19087;51.062;3.754;2022-07-23T01:26:44;17.20;99.90
32698;DHT22;19087;51.062;3.754;2022-07-23T01:29:10;17.20;99.90
32698;DHT22;19087;51.062;3.754;2022-07-23T01:31:36;17.10;99.90
32698;DHT22;19087;51.062;3.754;2022-07-23T01:34:02;17.10;99.90
32698;DHT22;19087;51.062;3.754;2022-07-23T01:36:28;17.00;99.90
32698;DHT22;19087;51.062;3.754;2022-07-23T01:38:54;17.00;99.90
32698;DHT22;19087;51.062;3.754;2022-07-23T01:41:19;16.90;99.90
32698;DHT22;19087;51.062;3.754;2022-07-23T01:43:45;16.70;99.90
32698;DHT22;19087;51.062;3.754;2022-07-23T01:46:11;16.80;99.90
32698;DHT22;19087;51.062;3.754;2022-07-23T01:48:37;16.80;99.90
32698;DHT22;19087;51.062;3.754;2022-07-23T01:51:03;16.80;99.90
32698;DHT22;19087;51.062;3.754;2022-07-23T01:53:29;16.90;99.90
32698;DHT22;19087;51.062;3.754;2022-07-23T01:55:59;16.90;99.90
32698;DHT22;19087;51.062;3.754;2022-07-23T01:58:26;16.90;99.90
32698;DHT22;19087;51.062;3.754;2022-07-23T02:00:52;16.90;99.90
32698;DHT22;19087;51.062;3.754;2022-07-23T02:03:18;17.00;99.90
32698;DHT22;19087;51.062;3.754;2022-07-23T02:05:43;17.00;99.90
32698;DHT22;19087;51.062;3.754;2022-07-23T02:08:09;17.00;99.90
32698;DHT22;19087;51.062;3.754;2022-07-23T02:10:35;17.00;99.90
32698;DHT22;19087;51.062;3.754;2022-07-23T02:13:00;17.00;99.90
32698;DHT22;19087;51.062;3.754;2022-07-23T02:15:26;16.90;99.90
32698;DHT22;19087;51.062;3.754;2022-07-23T02:17:54;16.90;99.90
32698;DHT22;19087;51.062;3.754;2022-07-23T02:20:19;16.90;99.90
32698;DHT22;19087;51.062;3.754;2022-07-23T02:22:45;16.90;99.90
32698;DHT22;19087;51.062;3.754;2022-07-23T02:25:11;16.90;99.90
32698;DHT22;19087;51.062;3.754;2022-07-23T02:27:37;16.90;99.90
32698;DHT22;19087;51.062;3.754;2022-07-23T02:30:03;16.90;99.90
32698;DHT22;19087;51.062;3.754;2022-07-23T02:32:29;16.80;99.90
32698;DHT22;19087;51.062;3.754;2022-07-23T02:34:55;16.80;99.90
32698;DHT22;19087;51.062;3.754;2022-07-23T02:37:20;16.80;99.90
32698;DHT22;19087;51.062;3.754;2022-07-23T02:39:46;16.60;99.90
32698;DHT22;19087;51.062;3.754;2022-07-23T02:42:14;16.60;99.90
32698;DHT22;19087;51.062;3.754;2022-07-23T02:44:39;16.60;99.90
32698;DHT22;19087;51.062;3.754;2022-07-23T02:47:05;16.50;99.90
32698;DHT22;19087;51.062;3.754;2022-07-23T02:49:31;16.50;99.90
32698;DHT22;19087;51.062;3.754;2022-07-23T02:51:56;16.40;99.90
32698;DHT22;19087;51.062;3.754;2022-07-23T02:54:23;16.50;99.90
32698;DHT22;19087;51.062;3.754;2022-07-23T02:56:49;16.50;99.90
32698;DHT22;19087;51.062;3.754;2022-07-23T02:59:16;16.50;99.90
32698;DHT22;19087;51.062;3.754;2022-07-23T03:01:42;16.60;99.90
32698;DHT22;19087;51.062;3.754;2022-07-23T03:04:08;16.60;99.90
32698;DHT22;19087;51.062;3.754;2022-07-23T03:06:34;16.60;99.90
32698;DHT22;19087;51.062;3.754;2022-07-23T03:08:59;16.50;99.90
32698;DHT22;19087;51.062;3.754;2022-07-23T03:11:25;16.50;99.90
32698;DHT22;19087;51.062;3.754;2022-07-23T03:13:54;16.50;99.90
32698;DHT22;19087;51.062;3.754;2022-07-23T03:16:19;16.50;99.90
32698;DHT22;19087;51.062;3.754;2022-07-23T03:18:45;16.40;99.90
32698;DHT22;19087;51.062;3.754;2022-07-23T03:21:11;16.40;99.90
32698;DHT22;19087;51.062;3.754;2022-07-23T03:23:36;16.40;99.90
32698;DHT22;19087;51.062;3.754;2022-07-23T03:26:02;16.40;99.90
32698;DHT22;19087;51.062;3.754;2022-07-23T03:28:28;16.40;99.90
32698;DHT22;19087;51.062;3.754;2022-07-23T03:30:53;16.30;99.90
32698;DHT22;19087;51.062;3.754;2022-07-23T03:33:20;16.40;99.90
32698;DHT22;19087;51.062;3.754;2022-07-23T03:35:46;16.40;99.90
32698;DHT22;19087;51.062;3.754;2022-07-23T03:38:13;16.30;99.90
32698;DHT22;19087;51.062;3.754;2022-07-23T03:40:38;16.40;99.90
32698;DHT22;19087;51.062;3.754;2022-07-23T03:43:04;16.40;99.90
32698;DHT22;19087;51.062;3.754;2022-07-23T03:45:31;16.30;99.90
32698;DHT22;19087;51.062;3.754;2022-07-23T03:47:56;16.20;99.90
32698;DHT22;19087;51.062;3.754;2022-07-23T03:50:22;16.30;99.90
32698;DHT22;19087;51.062;3.754;2022-07-23T03:52:48;16.30;99.90
32698;DHT22;19087;51.062;3.754;2022-07-23T03:55:13;16.30;99.90
32698;DHT22;19087;51.062;3.754;2022-07-23T03:57:39;16.30;99.90
32698;DHT22;19087;51.062;3.754;2022-07-23T04:00:06;16.30;99.90
32698;DHT22;19087;51.062;3.754;2022-07-23T04:02:35;16.40;99.90
32698;DHT22;19087;51.062;3.754;2022-07-23T04:05:01;16.30;99.90
32698;DHT22;19087;51.062;3.754;2022-07-23T04:07:26;16.30;99.90
32698;DHT22;19087;51.062;3.754;2022-07-23T04:09:52;16.20;99.90
32698;DHT22;19087;51.062;3.754;2022-07-23T04:12:18;16.20;99.90
32698;DHT22;19087;51.062;3.754;2022-07-23T04:14:44;16.10;99.90
32698;DHT22;19087;51.062;3.754;2022-07-23T04:17:10;16.00;99.90
32698;DHT22;19087;51.062;3.754;2022-07-23T04:19:36;16.00;99.90
32698;DHT22;19087;51.062;3.754;2022-07-23T04:22:05;16.10;99.90
32698;DHT22;19087;51.062;3.754;2022-07-23T04:24:31;16.20;99.90
32698;DHT22;19087;51.062;3.754;2022-07-23T04:26:57;16.30;99.90
32698;DHT22;19087;51.062;3.754;2022-07-23T04:29:23;16.40;99.90
32698;DHT22;19087;51.062;3.754;2022-07-23T04:31:49;16.40;99.90
32698;DHT22;19087;51.062;3.754;2022-07-23T04:34:15;16.40;99.90
32698;DHT22;19087;51.062;3.754;2022-07-23T04:36:41;16.50;99.90
32698;DHT22;19087;51.062;3.754;2022-07-23T04:39:06;16.50;99.90
32698;DHT22;19087;51.062;3.754;2022-07-23T04:41:32;16.50;99.90
32698;DHT22;19087;51.062;3.754;2022-07-23T04:43:59;16.40;99.90
32698;DHT22;19087;51.062;3.754;2022-07-23T04:46:25;16.60;99.90
32698;DHT22;19087;51.062;3.754;2022-07-23T04:48:51;16.60;99.90
32698;DHT22;19087;51.062;3.754;2022-07-23T04:51:16;16.60;99.90
32698;DHT22;19087;51.062;3.754;2022-07-23T04:53:42;16.60;99.90
32698;DHT22;19087;51.062;3.754;2022-07-23T04:56:08;16.80;99.90
32698;DHT22;19087;51.062;3.754;2022-07-23T04:58:34;17.00;99.90
32698;DHT22;19087;51.062;3.754;2022-07-23T05:01:01;17.20;99.90
32698;DHT22;19087;51.062;3.754;2022-07-23T05:03:27;17.30;99.90
32698;DHT22;19087;51.062;3.754;2022-07-23T05:05:52;17.30;99.90
32698;DHT22;19087;51.062;3.754;2022-07-23T05:08:18;17.20;99.90
32698;DHT22;19087;51.062;3.754;2022-07-23T05:10:44;17.20;99.90
32698;DHT22;19087;51.062;3.754;2022-07-23T05:13:10;17.30;99.90
32698;DHT22;19087;51.062;3.754;2022-07-23T05:15:35;17.50;99.90
32698;DHT22;19087;51.062;3.754;2022-07-23T05:18:01;17.70;99.90
32698;DHT22;19087;51.062;3.754;2022-07-23T05:20:26;17.70;99.90
32698;DHT22;19087;51.062;3.754;2022-07-23T05:22:52;17.80;99.90
32698;DHT22;19087;51.062;3.754;2022-07-23T05:25:18;17.90;99.90
32698;DHT22;19087;51.062;3.754;2022-07-23T05:27:44;18.00;99.90
32698;DHT22;19087;51.062;3.754;2022-07-23T05:30:10;18.10;99.90
32698;DHT22;19087;51.062;3.754;2022-07-23T05:32:36;18.20;99.90
32698;DHT22;19087;51.062;3.754;2022-07-23T05:35:05;18.20;99.90
32698;DHT22;19087;51.062;3.754;2022-07-23T05:37:31;18.10;99.90
32698;DHT22;19087;51.062;3.754;2022-07-23T05:40:01;18.00;99.90
32698;DHT22;19087;51.062;3.754;2022-07-23T05:42:27;18.10;99.90
32698;DHT22;19087;51.062;3.754;2022-07-23T05:44:53;18.20;99.90
32698;DHT22;19087;51.062;3.754;2022-07-23T05:47:18;18.20;99.90
32698;DHT22;19087;51.062;3.754;2022-07-23T05:49:44;18.20;99.90
32698;DHT22;19087;51.062;3.754;2022-07-23T05:52:10;18.30;99.90
32698;DHT22;19087;51.062;3.754;2022-07-23T05:54:35;18.30;99.90
32698;DHT22;19087;51.062;3.754;2022-07-23T05:57:01;18.60;99.90
32698;DHT22;19087;51.062;3.754;2022-07-23T05:59:27;18.80;99.90
32698;DHT22;19087;51.062;3.754;2022-07-23T06:01:53;19.00;99.90
32698;DHT22;19087;51.062;3.754;2022-07-23T06:04:18;19.10;99.90
32698;DHT22;19087;51.062;3.754;2022-07-23T06:06:44;19.40;99.90
32698;DHT22;19087;51.062;3.754;2022-07-23T06:09:10;19.40;99.90
32698;DHT22;19087;51.062;3.754;2022-07-23T06:11:39;19.60;99.90
32698;DHT22;19087;51.062;3.754;2022-07-23T06:14:05;19.80;99.90
32698;DHT22;19087;51.062;3.754;2022-07-23T06:16:30;19.90;99.90
32698;DHT22;19087;51.062;3.754;2022-07-23T06:18:56;20.00;99.90
32698;DHT22;19087;51.062;3.754;2022-07-23T06:21:22;20.30;99.90
32698;DHT22;19087;51.062;3.754;2022-07-23T06:23:49;20.50;99.90
32698;DHT22;19087;51.062;3.754;2022-07-23T06:26:14;21.20;99.90
32698;DHT22;19087;51.062;3.754;2022-07-23T06:28:40;21.60;99.90
32698;DHT22;19087;51.062;3.754;2022-07-23T06:31:05;22.30;99.90
32698;DHT22;19087;51.062;3.754;2022-07-23T06:33:31;22.80;99.90
32698;DHT22;19087;51.062;3.754;2022-07-23T06:35:57;24.10;98.80
32698;DHT22;19087;51.062;3.754;2022-07-23T06:38:22;25.00;95.80
32698;DHT22;19087;51.062;3.754;2022-07-23T06:40:48;25.00;94.90
32698;DHT22;19087;51.062;3.754;2022-07-23T06:43:13;24.60;94.70
32698;DHT22;19087;51.062;3.754;2022-07-23T06:45:39;24.60;94.50
32698;DHT22;19087;51.062;3.754;2022-07-23T06:48:06;25.00;93.70
32698;DHT22;19087;51.062;3.754;2022-07-23T06:50:32;25.30;92.60
32698;DHT22;19087;51.062;3.754;2022-07-23T06:52:57;25.40;92.40
32698;DHT22;19087;51.062;3.754;2022-07-23T06:58:21;25.80;91.70
32698;DHT22;19087;51.062;3.754;2022-07-23T07:00:47;25.80;91.50
32698;DHT22;19087;51.062;3.754;2022-07-23T07:03:13;25.50;91.90
32698;DHT22;19087;51.062;3.754;2022-07-23T07:05:39;26.00;91.50
32698;DHT22;19087;51.062;3.754;2022-07-23T07:08:05;27.30;90.10
32698;DHT22;19087;51.062;3.754;2022-07-23T07:10:31;28.40;87.20
32698;DHT22;19087;51.062;3.754;2022-07-23T07:12:57;29.50;84.10
32698;DHT22;19087;51.062;3.754;2022-07-23T07:15:23;30.00;81.30
32698;DHT22;19087;51.062;3.754;2022-07-23T07:17:49;31.30;77.80
32698;DHT22;19087;51.062;3.754;2022-07-23T07:20:14;32.20;75.00
32698;DHT22;19087;51.062;3.754;2022-07-23T07:22:40;32.80;72.90
32698;DHT22;19087;51.062;3.754;2022-07-23T07:25:06;33.60;71.10
32698;DHT22;19087;51.062;3.754;2022-07-23T07:27:32;34.20;69.20
32698;DHT22;19087;51.062;3.754;2022-07-23T07:29:58;34.60;68.00
32698;DHT22;19087;51.062;3.754;2022-07-23T07:32:23;35.30;66.10
32698;DHT22;19087;51.062;3.754;2022-07-23T07:34:52;35.20;65.70
32698;DHT22;19087;51.062;3.754;2022-07-23T07:37:17;35.40;65.30
32698;DHT22;19087;51.062;3.754;2022-07-23T07:39:43;34.90;64.90
32698;DHT22;19087;51.062;3.754;2022-07-23T07:42:10;34.90;64.40
32698;DHT22;19087;51.062;3.754;2022-07-23T07:44:35;35.30;62.60
32698;DHT22;19087;51.062;3.754;2022-07-23T07:47:02;35.20;62.20
32698;DHT22;19087;51.062;3.754;2022-07-23T07:49:28;34.60;63.40
32698;DHT22;19087;51.062;3.754;2022-07-23T07:51:57;34.50;63.60
32698;DHT22;19087;51.062;3.754;2022-07-23T07:54:23;34.90;62.80
32698;DHT22;19087;51.062;3.754;2022-07-23T07:56:48;35.70;62.20
32698;DHT22;19087;51.062;3.754;2022-07-23T07:59:15;35.40;61.20
32698;DHT22;19087;51.062;3.754;2022-07-23T08:01:41;33.90;63.40
32698;DHT22;19087;51.062;3.754;2022-07-23T08:04:07;33.40;64.50
32698;DHT22;19087;51.062;3.754;2022-07-23T08:06:33;32.00;66.00
32698;DHT22;19087;51.062;3.754;2022-07-23T08:08:58;31.20;68.50
32698;DHT22;19087;51.062;3.754;2022-07-23T08:11:24;31.10;68.70
32698;DHT22;19087;51.062;3.754;2022-07-23T08:13:50;30.60;69.80
32698;DHT22;19087;51.062;3.754;2022-07-23T08:16:16;31.10;68.90
32698;DHT22;19087;51.062;3.754;2022-07-23T08:18:42;31.30;68.90
32698;DHT22;19087;51.062;3.754;2022-07-23T08:21:07;31.00;69.80
32698;DHT22;19087;51.062;3.754;2022-07-23T08:23:33;30.50;71.20
32698;DHT22;19087;51.062;3.754;2022-07-23T08:26:00;30.10;72.00
32698;DHT22;19087;51.062;3.754;2022-07-23T08:28:26;30.10;71.20
32698;DHT22;19087;51.062;3.754;2022-07-23T08:30:53;30.30;69.90
32698;DHT22;19087;51.062;3.754;2022-07-23T08:33:19;30.20;68.80
32698;DHT22;19087;51.062;3.754;2022-07-23T08:35:50;30.70;68.40
32698;DHT22;19087;51.062;3.754;2022-07-23T08:38:20;31.40;67.40
32698;DHT22;19087;51.062;3.754;2022-07-23T08:40:52;31.50;67.00
32698;DHT22;19087;51.062;3.754;2022-07-23T08:43:23;30.80;67.90
32698;DHT22;19087;51.062;3.754;2022-07-23T08:45:51;30.90;67.90
32698;DHT22;19087;51.062;3.754;2022-07-23T08:48:20;31.00;66.90
32698;DHT22;19087;51.062;3.754;2022-07-23T08:50:54;30.90;66.30
32698;DHT22;19087;51.062;3.754;2022-07-23T08:53:22;31.20;65.20
32698;DHT22;19087;51.062;3.754;2022-07-23T08:55:56;30.80;64.60
32698;DHT22;19087;51.062;3.754;2022-07-23T08:58:22;30.90;64.20
32698;DHT22;19087;51.062;3.754;2022-07-23T09:00:48;30.60;64.60
32698;DHT22;19087;51.062;3.754;2022-07-23T09:03:23;30.50;64.80
32698;DHT22;19087;51.062;3.754;2022-07-23T09:05:50;29.80;65.80
32698;DHT22;19087;51.062;3.754;2022-07-23T09:08:21;28.80;68.20
32698;DHT22;19087;51.062;3.754;2022-07-23T09:11:00;28.70;68.50
32698;DHT22;19087;51.062;3.754;2022-07-23T09:16:30;29.10;67.70
32698;DHT22;19087;51.062;3.754;2022-07-23T09:21:35;27.70;69.40
32698;DHT22;19087;51.062;3.754;2022-07-23T09:24:04;27.70;70.60
32698;DHT22;19087;51.062;3.754;2022-07-23T09:26:35;27.90;70.40
32698;DHT22;19087;51.062;3.754;2022-07-23T09:29:11;28.30;70.50
32698;DHT22;19087;51.062;3.754;2022-07-23T09:31:54;28.90;68.80
32698;DHT22;19087;51.062;3.754;2022-07-23T09:34:24;29.20;67.00
32698;DHT22;19087;51.062;3.754;2022-07-23T09:36:56;29.40;67.30
32698;DHT22;19087;51.062;3.754;2022-07-23T09:39:29;29.50;67.30
32698;DHT22;19087;51.062;3.754;2022-07-23T09:41:57;29.20;67.10
32698;DHT22;19087;51.062;3.754;2022-07-23T09:44:23;28.40;68.00
32698;DHT22;19087;51.062;3.754;2022-07-23T09:46:50;28.10;69.00
32698;DHT22;19087;51.062;3.754;2022-07-23T09:49:21;28.00;69.00
32698;DHT22;19087;51.062;3.754;2022-07-23T09:51:52;28.10;68.70
32698;DHT22;19087;51.062;3.754;2022-07-23T09:56:48;28.60;68.90
32698;DHT22;19087;51.062;3.754;2022-07-23T09:59:16;28.90;68.30
32698;DHT22;19087;51.062;3.754;2022-07-23T10:01:45;29.10;68.00
32698;DHT22;19087;51.062;3.754;2022-07-23T10:04:12;29.00;68.50
32698;DHT22;19087;51.062;3.754;2022-07-23T10:06:39;29.20;68.20
32698;DHT22;19087;51.062;3.754;2022-07-23T10:09:07;29.00;68.40
32698;DHT22;19087;51.062;3.754;2022-07-23T10:11:34;28.70;69.10
32698;DHT22;19087;51.062;3.754;2022-07-23T10:14:02;28.50;69.70
32698;DHT22;19087;51.062;3.754;2022-07-23T10:16:31;28.10;69.60
32698;DHT22;19087;51.062;3.754;2022-07-23T10:18:57;27.10;71.40
32698;DHT22;19087;51.062;3.754;2022-07-23T10:21:48;27.10;72.30
32698;DHT22;19087;51.062;3.754;2022-07-23T10:24:21;27.20;71.70
32698;DHT22;19087;51.062;3.754;2022-07-23T10:29:54;27.00;72.30
32698;DHT22;19087;51.062;3.754;2022-07-23T10:37:39;27.00;72.70
32698;DHT22;19087;51.062;3.754;2022-07-23T10:40:20;27.40;71.70
32698;DHT22;19087;51.062;3.754;2022-07-23T10:42:50;27.10;71.00
32698;DHT22;19087;51.062;3.754;2022-07-23T10:45:34;27.10;71.70
32698;DHT22;19087;51.062;3.754;2022-07-23T10:48:16;27.20;72.70
32698;DHT22;19087;51.062;3.754;2022-07-23T10:50:43;27.40;72.30
32698;DHT22;19087;51.062;3.754;2022-07-23T10:53:15;27.10;70.30
32698;DHT22;19087;51.062;3.754;2022-07-23T10:55:50;26.70;70.70
32698;DHT22;19087;51.062;3.754;2022-07-23T10:58:21;26.60;71.60
32698;DHT22;19087;51.062;3.754;2022-07-23T11:00:47;26.50;71.70
32698;DHT22;19087;51.062;3.754;2022-07-23T11:03:34;26.60;71.70
32698;DHT22;19087;51.062;3.754;2022-07-23T11:06:02;27.00;70.90
32698;DHT22;19087;51.062;3.754;2022-07-23T11:08:27;27.30;70.30
32698;DHT22;19087;51.062;3.754;2022-07-23T11:13:37;27.60;69.50
32698;DHT22;19087;51.062;3.754;2022-07-23T11:16:22;27.60;69.50
32698;DHT22;19087;51.062;3.754;2022-07-23T11:24:07;26.80;69.30
32698;DHT22;19087;51.062;3.754;2022-07-23T11:34:30;26.80;71.10
32698;DHT22;19087;51.062;3.754;2022-07-23T11:36:56;26.80;72.10
32698;DHT22;19087;51.062;3.754;2022-07-23T11:39:25;26.90;71.90
32698;DHT22;19087;51.062;3.754;2022-07-23T11:41:52;26.90;71.20
32698;DHT22;19087;51.062;3.754;2022-07-23T11:44:28;26.90;69.80
32698;DHT22;19087;51.062;3.754;2022-07-23T11:47:14;27.20;69.60
32698;DHT22;19087;51.062;3.754;2022-07-23T11:49:52;27.00;70.70
32698;DHT22;19087;51.062;3.754;2022-07-23T11:52:18;26.90;71.20
32698;DHT22;19087;51.062;3.754;2022-07-23T11:54:50;26.80;71.30
32698;DHT22;19087;51.062;3.754;2022-07-23T11:57:17;26.80;70.60
32698;DHT22;19087;51.062;3.754;2022-07-23T11:59:43;27.00;70.00
32698;DHT22;19087;51.062;3.754;2022-07-23T12:02:11;27.20;70.50
32698;DHT22;19087;51.062;3.754;2022-07-23T12:04:43;27.10;69.30
32698;DHT22;19087;51.062;3.754;2022-07-23T12:07:26;27.40;69.60
32698;DHT22;19087;51.062;3.754;2022-07-23T12:09:53;27.10;69.20
32698;DHT22;19087;51.062;3.754;2022-07-23T12:12:19;27.50;68.80
32698;DHT22;19087;51.062;3.754;2022-07-23T12:14:56;27.60;68.10
32698;DHT22;19087;51.062;3.754;2022-07-23T12:17:29;28.00;67.60
32698;DHT22;19087;51.062;3.754;2022-07-23T12:19:57;28.30;68.30
32698;DHT22;19087;51.062;3.754;2022-07-23T12:22:26;28.60;67.40
32698;DHT22;19087;51.062;3.754;2022-07-23T12:24:59;28.90;66.00
32698;DHT22;19087;51.062;3.754;2022-07-23T12:27:26;28.80;65.20
32698;DHT22;19087;51.062;3.754;2022-07-23T12:29:53;28.90;64.50
32698;DHT22;19087;51.062;3.754;2022-07-23T12:34:49;29.30;64.10
32698;DHT22;19087;51.062;3.754;2022-07-23T12:37:34;29.60;64.10
32698;DHT22;19087;51.062;3.754;2022-07-23T12:43:03;30.20;63.80
32698;DHT22;19087;51.062;3.754;2022-07-23T12:48:14;30.30;62.70
32698;DHT22;19087;51.062;3.754;2022-07-23T12:55:43;30.60;62.60
32698;DHT22;19087;51.062;3.754;2022-07-23T12:58:12;30.50;62.70
32698;DHT22;19087;51.062;3.754;2022-07-23T13:01:00;30.60;62.30
32698;DHT22;19087;51.062;3.754;2022-07-23T13:03:27;30.50;62.70
32698;DHT22;19087;51.062;3.754;2022-07-23T13:05:54;30.30;62.90
32698;DHT22;19087;51.062;3.754;2022-07-23T13:08:21;30.20;62.70
32698;DHT22;19087;51.062;3.754;2022-07-23T13:10:47;30.30;63.20
32698;DHT22;19087;51.062;3.754;2022-07-23T13:13:15;30.20;62.70
32698;DHT22;19087;51.062;3.754;2022-07-23T13:15:41;30.50;62.30
32698;DHT22;19087;51.062;3.754;2022-07-23T13:18:07;30.40;63.20
32698;DHT22;19087;51.062;3.754;2022-07-23T13:20:33;30.50;62.40
32698;DHT22;19087;51.062;3.754;2022-07-23T13:23:00;30.60;62.10
32698;DHT22;19087;51.062;3.754;2022-07-23T13:25:26;30.50;62.10
32698;DHT22;19087;51.062;3.754;2022-07-23T13:27:53;30.00;62.80
32698;DHT22;19087;51.062;3.754;2022-07-23T13:30:18;30.20;63.80
32698;DHT22;19087;51.062;3.754;2022-07-23T13:32:45;30.40;63.00
32698;DHT22;19087;51.062;3.754;2022-07-23T13:35:12;30.40;62.50
32698;DHT22;19087;51.062;3.754;2022-07-23T13:37:38;30.30;62.30
32698;DHT22;19087;51.062;3.754;2022-07-23T13:40:04;30.30;62.10
32698;DHT22;19087;51.062;3.754;2022-07-23T13:42:31;30.20;63.10
32698;DHT22;19087;51.062;3.754;2022-07-23T13:44:57;30.20;64.40
32698;DHT22;19087;51.062;3.754;2022-07-23T13:47:22;29.80;63.70
32698;DHT22;19087;51.062;3.754;2022-07-23T13:49:48;29.90;64.10
32698;DHT22;19087;51.062;3.754;2022-07-23T13:52:14;30.10;64.30
32698;DHT22;19087;51.062;3.754;2022-07-23T13:54:39;29.80;63.70
32698;DHT22;19087;51.062;3.754;2022-07-23T13:57:05;30.00;64.00
32698;DHT22;19087;51.062;3.754;2022-07-23T13:59:31;29.80;63.60
32698;DHT22;19087;51.062;3.754;2022-07-23T14:01:56;29.90;63.70
32698;DHT22;19087;51.062;3.754;2022-07-23T14:04:23;29.80;64.10
32698;DHT22;19087;51.062;3.754;2022-07-23T14:06:49;29.80;64.10
32698;DHT22;19087;51.062;3.754;2022-07-23T14:09:14;30.00;64.40
32698;DHT22;19087;51.062;3.754;2022-07-23T14:11:40;30.20;63.50
32698;DHT22;19087;51.062;3.754;2022-07-23T14:14:06;30.30;63.30
32698;DHT22;19087;51.062;3.754;2022-07-23T14:16:31;30.20;64.00
32698;DHT22;19087;51.062;3.754;2022-07-23T14:18:57;30.20;63.90
32698;DHT22;19087;51.062;3.754;2022-07-23T14:21:24;30.30;63.70
32698;DHT22;19087;51.062;3.754;2022-07-23T14:23:49;30.50;63.30
32698;DHT22;19087;51.062;3.754;2022-07-23T14:26:15;30.70;62.90
32698;DHT22;19087;51.062;3.754;2022-07-23T14:28:41;30.80;62.80
32698;DHT22;19087;51.062;3.754;2022-07-23T14:31:07;30.70;63.20
32698;DHT22;19087;51.062;3.754;2022-07-23T14:33:35;30.20;64.00
32698;DHT22;19087;51.062;3.754;2022-07-23T14:36:00;30.30;64.10
32698;DHT22;19087;51.062;3.754;2022-07-23T14:38:27;30.70;63.40
32698;DHT22;19087;51.062;3.754;2022-07-23T14:40:52;30.90;62.50
32698;DHT22;19087;51.062;3.754;2022-07-23T14:43:18;31.00;62.20
32698;DHT22;19087;51.062;3.754;2022-07-23T14:45:44;30.90;62.00
32698;DHT22;19087;51.062;3.754;2022-07-23T14:48:10;30.90;62.10
32698;DHT22;19087;51.062;3.754;2022-07-23T14:50:35;30.60;63.00
32698;DHT22;19087;51.062;3.754;2022-07-23T14:53:02;30.90;63.00
32698;DHT22;19087;51.062;3.754;2022-07-23T14:55:28;30.90;62.00
32698;DHT22;19087;51.062;3.754;2022-07-23T14:57:59;31.00;62.40
32698;DHT22;19087;51.062;3.754;2022-07-23T15:00:25;31.00;61.90
32698;DHT22;19087;51.062;3.754;2022-07-23T15:02:52;31.20;61.50
32698;DHT22;19087;51.062;3.754;2022-07-23T15:05:18;31.10;62.10
32698;DHT22;19087;51.062;3.754;2022-07-23T15:07:45;31.00;62.70
32698;DHT22;19087;51.062;3.754;2022-07-23T15:10:11;30.90;62.40
32698;DHT22;19087;51.062;3.754;2022-07-23T15:12:37;31.10;62.50
32698;DHT22;19087;51.062;3.754;2022-07-23T15:15:03;31.40;61.60
32698;DHT22;19087;51.062;3.754;2022-07-23T15:17:29;31.20;61.90
32698;DHT22;19087;51.062;3.754;2022-07-23T15:19:55;31.10;62.70
32698;DHT22;19087;51.062;3.754;2022-07-23T15:22:21;31.30;62.10
32698;DHT22;19087;51.062;3.754;2022-07-23T15:24:47;30.80;62.80
32698;DHT22;19087;51.062;3.754;2022-07-23T15:27:12;30.70;62.80
32698;DHT22;19087;51.062;3.754;2022-07-23T15:29:38;30.70;63.10
32698;DHT22;19087;51.062;3.754;2022-07-23T15:32:04;30.90;62.90
32698;DHT22;19087;51.062;3.754;2022-07-23T15:34:31;30.90;63.20
32698;DHT22;19087;51.062;3.754;2022-07-23T15:37:00;30.70;62.80
32698;DHT22;19087;51.062;3.754;2022-07-23T15:39:26;30.30;64.30
32698;DHT22;19087;51.062;3.754;2022-07-23T15:41:59;29.80;64.70
32698;DHT22;19087;51.062;3.754;2022-07-23T15:44:39;29.30;66.20
32698;DHT22;19087;51.062;3.754;2022-07-23T15:47:04;29.40;66.00
32698;DHT22;19087;51.062;3.754;2022-07-23T15:49:30;29.30;66.10
32698;DHT22;19087;51.062;3.754;2022-07-23T15:51:56;29.70;65.80
32698;DHT22;19087;51.062;3.754;2022-07-23T15:54:22;30.00;65.00
32698;DHT22;19087;51.062;3.754;2022-07-23T15:56:47;30.30;64.10
32698;DHT22;19087;51.062;3.754;2022-07-23T15:59:13;30.50;63.90
32698;DHT22;19087;51.062;3.754;2022-07-23T16:01:39;30.60;63.40
32698;DHT22;19087;51.062;3.754;2022-07-23T16:04:05;30.00;64.40
32698;DHT22;19087;51.062;3.754;2022-07-23T16:06:32;29.50;65.60
32698;DHT22;19087;51.062;3.754;2022-07-23T16:08:58;29.90;64.80
32698;DHT22;19087;51.062;3.754;2022-07-23T16:11:25;30.20;64.80
32698;DHT22;19087;51.062;3.754;2022-07-23T16:13:51;30.50;63.20
32698;DHT22;19087;51.062;3.754;2022-07-23T16:16:17;30.50;63.40
32698;DHT22;19087;51.062;3.754;2022-07-23T16:18:42;30.10;64.10